sensor_id;sensor_type;location;lat;lon;timestamp;P1;durP1;ratioP1;P2;durP2;ratioP2
47429;SDS011;33181;49.246;7.372;2023-04-15T00:01:26;9.30;;;7.20;;
47429;SDS011;33181;49.246;7.372;2023-04-15T00:03:53;9.83;;;6.30;;
47429;SDS011;33181;49.246;7.372;2023-04-15T00:06:20;9.27;;;6.37;;
47429;SDS011;33181;49.246;7.372;2023-04-15T00:08:46;9.00;;;5.33;;
47429;SDS011;33181;49.246;7.372;2023-04-15T00:11:14;9.00;;;5.67;;
47429;SDS011;33181;49.246;7.372;2023-04-15T00:13:42;11.17;;;6.67;;
47429;SDS011;33181;49.246;7.372;2023-04-15T00:16:08;10.63;;;6.87;;
47429;SDS011;33181;49.246;7.372;2023-04-15T00:18:35;12.10;;;7.13;;
47429;SDS011;33181;49.246;7.372;2023-04-15T00:21:01;10.20;;;7.00;;
47429;SDS011;33181;49.246;7.372;2023-04-15T00:23:29;15.83;;;8.17;;
47429;SDS011;33181;49.246;7.372;2023-04-15T00:25:57;11.77;;;7.10;;
47429;SDS011;33181;49.246;7.372;2023-04-15T00:28:23;8.90;;;6.80;;
47429;SDS011;33181;49.246;7.372;2023-04-15T00:30:48;11.00;;;6.50;;
47429;SDS011;33181;49.246;7.372;2023-04-15T00:33:14;13.87;;;6.80;;
47429;SDS011;33181;49.246;7.372;2023-04-15T00:35:42;10.97;;;6.20;;
47429;SDS011;33181;49.246;7.372;2023-04-15T00:38:11;9.57;;;6.70;;
47429;SDS011;33181;49.246;7.372;2023-04-15T00:40:37;12.30;;;6.97;;
47429;SDS011;33181;49.246;7.372;2023-04-15T00:43:02;10.90;;;6.80;;
47429;SDS011;33181;49.246;7.372;2023-04-15T00:45:31;9.63;;;6.73;;
47429;SDS011;33181;49.246;7.372;2023-04-15T00:47:57;12.77;;;6.63;;
47429;SDS011;33181;49.246;7.372;2023-04-15T00:50:23;9.67;;;6.23;;
47429;SDS011;33181;49.246;7.372;2023-04-15T00:52:51;12.53;;;6.57;;
47429;SDS011;33181;49.246;7.372;2023-04-15T00:55:17;8.80;;;5.53;;
47429;SDS011;33181;49.246;7.372;2023-04-15T00:57:43;7.63;;;5.47;;
47429;SDS011;33181;49.246;7.372;2023-04-15T01:00:09;9.43;;;5.83;;
47429;SDS011;33181;49.246;7.372;2023-04-15T01:02:36;9.13;;;6.00;;
47429;SDS011;33181;49.246;7.372;2023-04-15T01:05:03;10.77;;;6.93;;
47429;SDS011;33181;49.246;7.372;2023-04-15T01:07:29;11.83;;;6.40;;
47429;SDS011;33181;49.246;7.372;2023-04-15T01:09:56;9.10;;;6.37;;
47429;SDS011;33181;49.246;7.372;2023-04-15T01:12:22;10.53;;;6.20;;
47429;SDS011;33181;49.246;7.372;2023-04-15T01:14:50;9.37;;;6.10;;
47429;SDS011;33181;49.246;7.372;2023-04-15T01:17:18;10.80;;;6.27;;
47429;SDS011;33181;49.246;7.372;2023-04-15T01:19:44;8.60;;;6.00;;
47429;SDS011;33181;49.246;7.372;2023-04-15T01:22:10;9.53;;;6.37;;
47429;SDS011;33181;49.246;7.372;2023-04-15T01:24:36;9.53;;;6.27;;
47429;SDS011;33181;49.246;7.372;2023-04-15T01:27:02;9.70;;;6.30;;
47429;SDS011;33181;49.246;7.372;2023-04-15T01:29:29;8.60;;;5.97;;
47429;SDS011;33181;49.246;7.372;2023-04-15T01:31:57;10.10;;;6.33;;
47429;SDS011;33181;49.246;7.372;2023-04-15T01:34:22;10.03;;;6.17;;
47429;SDS011;33181;49.246;7.372;2023-04-15T01:36:48;7.87;;;5.80;;
47429;SDS011;33181;49.246;7.372;2023-04-15T01:39:14;8.17;;;5.33;;
47429;SDS011;33181;49.246;7.372;2023-04-15T01:41:40;7.07;;;5.40;;
47429;SDS011;33181;49.246;7.372;2023-04-15T01:44:06;10.33;;;5.93;;
47429;SDS011;33181;49.246;7.372;2023-04-15T01:46:32;10.60;;;6.23;;
47429;SDS011;33181;49.246;7.372;2023-04-15T01:48:59;9.23;;;6.23;;
47429;SDS011;33181;49.246;7.372;2023-04-15T01:51:25;10.50;;;6.20;;
47429;SDS011;33181;49.246;7.372;2023-04-15T01:53:51;7.13;;;5.00;;
47429;SDS011;33181;49.246;7.372;2023-04-15T01:56:17;9.53;;;5.73;;
47429;SDS011;33181;49.246;7.372;2023-04-15T01:58:43;7.50;;;5.27;;
47429;SDS011;33181;49.246;7.372;2023-04-15T02:01:09;10.67;;;5.63;;
47429;SDS011;33181;49.246;7.372;2023-04-15T02:03:35;8.67;;;6.00;;
47429;SDS011;33181;49.246;7.372;2023-04-15T02:06:02;9.57;;;6.03;;
47429;SDS011;33181;49.246;7.372;2023-04-15T02:08:28;8.23;;;5.43;;
47429;SDS011;33181;49.246;7.372;2023-04-15T02:10:55;10.80;;;5.40;;
47429;SDS011;33181;49.246;7.372;2023-04-15T02:13:21;7.10;;;5.23;;
47429;SDS011;33181;49.246;7.372;2023-04-15T02:15:47;11.20;;;5.93;;
47429;SDS011;33181;49.246;7.372;2023-04-15T02:18:14;7.10;;;5.27;;
47429;SDS011;33181;49.246;7.372;2023-04-15T02:20:41;9.43;;;5.90;;
47429;SDS011;33181;49.246;7.372;2023-04-15T02:23:10;8.03;;;5.50;;
47429;SDS011;33181;49.246;7.372;2023-04-15T02:25:37;7.63;;;5.27;;
47429;SDS011;33181;49.246;7.372;2023-04-15T02:28:03;7.40;;;5.20;;
47429;SDS011;33181;49.246;7.372;2023-04-15T02:30:30;7.47;;;5.10;;
47429;SDS011;33181;49.246;7.372;2023-04-15T02:32:57;8.10;;;5.30;;
47429;SDS011;33181;49.246;7.372;2023-04-15T02:35:24;8.53;;;5.30;;
47429;SDS011;33181;49.246;7.372;2023-04-15T02:37:50;10.93;;;5.83;;
47429;SDS011;33181;49.246;7.372;2023-04-15T02:40:16;9.60;;;5.43;;
47429;SDS011;33181;49.246;7.372;2023-04-15T02:42:43;10.97;;;5.90;;
47429;SDS011;33181;49.246;7.372;2023-04-15T02:45:09;8.90;;;5.63;;
47429;SDS011;33181;49.246;7.372;2023-04-15T02:47:36;8.97;;;5.53;;
47429;SDS011;33181;49.246;7.372;2023-04-15T02:50:09;8.47;;;5.30;;
47429;SDS011;33181;49.246;7.372;2023-04-15T02:52:40;9.30;;;5.90;;
47429;SDS011;33181;49.246;7.372;2023-04-15T02:55:07;7.63;;;5.50;;
47429;SDS011;33181;49.246;7.372;2023-04-15T02:57:33;8.03;;;5.60;;
47429;SDS011;33181;49.246;7.372;2023-04-15T03:00:01;9.90;;;6.20;;
47429;SDS011;33181;49.246;7.372;2023-04-15T03:02:32;9.10;;;5.33;;
47429;SDS011;33181;49.246;7.372;2023-04-15T03:04:59;9.17;;;5.60;;
47429;SDS011;33181;49.246;7.372;2023-04-15T03:07:25;7.10;;;5.20;;
47429;SDS011;33181;49.246;7.372;2023-04-15T03:09:51;7.70;;;5.47;;
47429;SDS011;33181;49.246;7.372;2023-04-15T03:12:17;9.10;;;5.77;;
47429;SDS011;33181;49.246;7.372;2023-04-15T03:14:42;8.03;;;5.17;;
47429;SDS011;33181;49.246;7.372;2023-04-15T03:17:08;7.30;;;5.53;;
47429;SDS011;33181;49.246;7.372;2023-04-15T03:19:34;7.57;;;4.60;;
47429;SDS011;33181;49.246;7.372;2023-04-15T03:22:00;6.87;;;5.00;;
47429;SDS011;33181;49.246;7.372;2023-04-15T03:24:26;7.37;;;5.03;;
47429;SDS011;33181;49.246;7.372;2023-04-15T03:26:53;9.10;;;6.37;;
47429;SDS011;33181;49.246;7.372;2023-04-15T03:29:20;7.93;;;5.20;;
47429;SDS011;33181;49.246;7.372;2023-04-15T03:31:46;9.13;;;5.77;;
47429;SDS011;33181;49.246;7.372;2023-04-15T03:34:11;12.60;;;5.60;;
47429;SDS011;33181;49.246;7.372;2023-04-15T03:36:37;6.83;;;4.90;;
47429;SDS011;33181;49.246;7.372;2023-04-15T03:39:03;8.50;;;5.90;;
47429;SDS011;33181;49.246;7.372;2023-04-15T03:41:29;6.30;;;4.67;;
47429;SDS011;33181;49.246;7.372;2023-04-15T03:43:55;7.50;;;4.83;;
47429;SDS011;33181;49.246;7.372;2023-04-15T03:46:21;10.50;;;5.10;;
47429;SDS011;33181;49.246;7.372;2023-04-15T03:48:47;9.87;;;5.30;;
47429;SDS011;33181;49.246;7.372;2023-04-15T03:51:12;9.47;;;5.20;;
47429;SDS011;33181;49.246;7.372;2023-04-15T03:53:38;8.20;;;5.10;;
47429;SDS011;33181;49.246;7.372;2023-04-15T03:56:04;7.80;;;4.60;;
47429;SDS011;33181;49.246;7.372;2023-04-15T03:58:30;6.97;;;4.87;;
47429;SDS011;33181;49.246;7.372;2023-04-15T04:00:56;6.93;;;4.80;;
47429;SDS011;33181;49.246;7.372;2023-04-15T04:03:22;7.07;;;4.53;;
47429;SDS011;33181;49.246;7.372;2023-04-15T04:05:47;8.90;;;5.20;;
47429;SDS011;33181;49.246;7.372;2023-04-15T04:08:13;8.53;;;4.60;;
47429;SDS011;33181;49.246;7.372;2023-04-15T04:10:40;7.93;;;4.67;;
47429;SDS011;33181;49.246;7.372;2023-04-15T04:13:06;5.63;;;4.40;;
47429;SDS011;33181;49.246;7.372;2023-04-15T04:15:32;7.17;;;4.90;;
47429;SDS011;33181;49.246;7.372;2023-04-15T04:17:58;6.07;;;4.40;;
47429;SDS011;33181;49.246;7.372;2023-04-15T04:20:24;6.50;;;4.63;;
47429;SDS011;33181;49.246;7.372;2023-04-15T04:22:49;8.77;;;5.20;;
47429;SDS011;33181;49.246;7.372;2023-04-15T04:25:15;6.63;;;4.80;;
47429;SDS011;33181;49.246;7.372;2023-04-15T04:27:41;7.70;;;5.10;;
47429;SDS011;33181;49.246;7.372;2023-04-15T04:30:07;7.00;;;4.70;;
47429;SDS011;33181;49.246;7.372;2023-04-15T04:32:33;7.67;;;4.90;;
47429;SDS011;33181;49.246;7.372;2023-04-15T04:34:59;6.93;;;4.40;;
47429;SDS011;33181;49.246;7.372;2023-04-15T04:37:25;7.83;;;4.53;;
47429;SDS011;33181;49.246;7.372;2023-04-15T04:39:51;7.70;;;4.70;;
47429;SDS011;33181;49.246;7.372;2023-04-15T04:42:16;8.47;;;4.80;;
47429;SDS011;33181;49.246;7.372;2023-04-15T04:44:42;7.27;;;4.80;;
47429;SDS011;33181;49.246;7.372;2023-04-15T04:47:08;8.33;;;4.90;;
47429;SDS011;33181;49.246;7.372;2023-04-15T04:49:34;11.33;;;5.60;;
47429;SDS011;33181;49.246;7.372;2023-04-15T04:52:00;9.10;;;5.40;;
47429;SDS011;33181;49.246;7.372;2023-04-15T04:54:26;11.50;;;5.17;;
47429;SDS011;33181;49.246;7.372;2023-04-15T04:56:52;6.27;;;5.00;;
47429;SDS011;33181;49.246;7.372;2023-04-15T04:59:18;6.73;;;4.70;;
47429;SDS011;33181;49.246;7.372;2023-04-15T05:01:45;9.80;;;5.37;;
47429;SDS011;33181;49.246;7.372;2023-04-15T05:04:11;7.60;;;5.30;;
47429;SDS011;33181;49.246;7.372;2023-04-15T05:06:37;7.80;;;5.90;;
47429;SDS011;33181;49.246;7.372;2023-04-15T05:09:03;8.40;;;6.07;;
47429;SDS011;33181;49.246;7.372;2023-04-15T05:11:29;8.50;;;5.37;;
47429;SDS011;33181;49.246;7.372;2023-04-15T05:13:54;7.17;;;5.50;;
47429;SDS011;33181;49.246;7.372;2023-04-15T05:16:20;11.07;;;6.20;;
47429;SDS011;33181;49.246;7.372;2023-04-15T05:18:46;9.10;;;5.70;;
47429;SDS011;33181;49.246;7.372;2023-04-15T05:21:12;7.97;;;5.90;;
47429;SDS011;33181;49.246;7.372;2023-04-15T05:23:38;7.50;;;5.33;;
47429;SDS011;33181;49.246;7.372;2023-04-15T05:26:03;7.40;;;5.30;;
47429;SDS011;33181;49.246;7.372;2023-04-15T05:28:29;9.03;;;5.93;;
47429;SDS011;33181;49.246;7.372;2023-04-15T05:30:55;7.40;;;5.63;;
47429;SDS011;33181;49.246;7.372;2023-04-15T05:33:21;7.40;;;5.53;;
47429;SDS011;33181;49.246;7.372;2023-04-15T05:35:47;14.60;;;5.50;;
47429;SDS011;33181;49.246;7.372;2023-04-15T05:38:12;4.97;;;4.40;;
47429;SDS011;33181;49.246;7.372;2023-04-15T05:40:38;8.73;;;5.50;;
47429;SDS011;33181;49.246;7.372;2023-04-15T05:43:04;5.97;;;4.77;;
47429;SDS011;33181;49.246;7.372;2023-04-15T05:45:30;7.87;;;5.60;;
47429;SDS011;33181;49.246;7.372;2023-04-15T05:47:56;7.30;;;4.90;;
47429;SDS011;33181;49.246;7.372;2023-04-15T05:50:22;9.87;;;5.20;;
47429;SDS011;33181;49.246;7.372;2023-04-15T05:52:47;11.63;;;4.83;;
47429;SDS011;33181;49.246;7.372;2023-04-15T05:55:13;8.50;;;5.13;;
47429;SDS011;33181;49.246;7.372;2023-04-15T05:57:39;13.53;;;5.70;;
47429;SDS011;33181;49.246;7.372;2023-04-15T06:00:05;10.50;;;5.90;;
47429;SDS011;33181;49.246;7.372;2023-04-15T06:02:32;6.63;;;4.90;;
47429;SDS011;33181;49.246;7.372;2023-04-15T06:04:57;6.80;;;4.70;;
47429;SDS011;33181;49.246;7.372;2023-04-15T06:07:23;6.20;;;4.37;;
47429;SDS011;33181;49.246;7.372;2023-04-15T06:09:49;7.17;;;4.40;;
47429;SDS011;33181;49.246;7.372;2023-04-15T06:12:15;6.23;;;4.20;;
47429;SDS011;33181;49.246;7.372;2023-04-15T06:14:41;8.57;;;4.90;;
47429;SDS011;33181;49.246;7.372;2023-04-15T06:17:07;6.50;;;4.00;;
47429;SDS011;33181;49.246;7.372;2023-04-15T06:19:33;8.30;;;4.53;;
47429;SDS011;33181;49.246;7.372;2023-04-15T06:22:01;7.87;;;3.77;;
47429;SDS011;33181;49.246;7.372;2023-04-15T06:24:31;8.30;;;4.33;;
47429;SDS011;33181;49.246;7.372;2023-04-15T06:26:57;9.83;;;4.00;;
47429;SDS011;33181;49.246;7.372;2023-04-15T06:29:22;5.47;;;3.63;;
47429;SDS011;33181;49.246;7.372;2023-04-15T06:31:48;6.93;;;4.33;;
47429;SDS011;33181;49.246;7.372;2023-04-15T06:34:14;6.30;;;4.00;;
47429;SDS011;33181;49.246;7.372;2023-04-15T06:36:40;6.07;;;3.73;;
47429;SDS011;33181;49.246;7.372;2023-04-15T06:39:05;4.93;;;3.90;;
47429;SDS011;33181;49.246;7.372;2023-04-15T06:41:31;5.73;;;3.60;;
47429;SDS011;33181;49.246;7.372;2023-04-15T06:43:58;7.27;;;4.00;;
47429;SDS011;33181;49.246;7.372;2023-04-15T06:46:24;5.27;;;3.70;;
47429;SDS011;33181;49.246;7.372;2023-04-15T06:48:49;5.70;;;3.63;;
47429;SDS011;33181;49.246;7.372;2023-04-15T06:51:16;8.03;;;3.70;;
47429;SDS011;33181;49.246;7.372;2023-04-15T06:53:42;10.43;;;4.20;;
47429;SDS011;33181;49.246;7.372;2023-04-15T06:56:08;7.00;;;3.40;;
47429;SDS011;33181;49.246;7.372;2023-04-15T06:58:34;7.60;;;3.77;;
47429;SDS011;33181;49.246;7.372;2023-04-15T07:01:00;5.97;;;3.73;;
47429;SDS011;33181;49.246;7.372;2023-04-15T07:03:26;6.90;;;3.80;;
47429;SDS011;33181;49.246;7.372;2023-04-15T07:05:52;6.20;;;3.60;;
47429;SDS011;33181;49.246;7.372;2023-04-15T07:08:18;5.27;;;3.40;;
47429;SDS011;33181;49.246;7.372;2023-04-15T07:10:47;8.17;;;3.80;;
47429;SDS011;33181;49.246;7.372;2023-04-15T07:13:12;9.37;;;3.80;;
47429;SDS011;33181;49.246;7.372;2023-04-15T07:15:38;4.83;;;3.73;;
47429;SDS011;33181;49.246;7.372;2023-04-15T07:18:04;7.80;;;4.13;;
47429;SDS011;33181;49.246;7.372;2023-04-15T07:20:30;6.07;;;4.00;;
47429;SDS011;33181;49.246;7.372;2023-04-15T07:22:56;7.80;;;4.17;;
47429;SDS011;33181;49.246;7.372;2023-04-15T07:25:22;8.33;;;3.77;;
47429;SDS011;33181;49.246;7.372;2023-04-15T07:27:48;6.50;;;3.83;;
47429;SDS011;33181;49.246;7.372;2023-04-15T07:30:16;7.03;;;4.00;;
47429;SDS011;33181;49.246;7.372;2023-04-15T07:32:42;6.70;;;4.17;;
47429;SDS011;33181;49.246;7.372;2023-04-15T07:35:08;5.77;;;3.93;;
47429;SDS011;33181;49.246;7.372;2023-04-15T07:37:34;7.03;;;4.00;;
47429;SDS011;33181;49.246;7.372;2023-04-15T07:40:00;6.60;;;3.87;;
47429;SDS011;33181;49.246;7.372;2023-04-15T07:42:28;7.83;;;3.90;;
47429;SDS011;33181;49.246;7.372;2023-04-15T07:44:54;5.70;;;3.57;;
47429;SDS011;33181;49.246;7.372;2023-04-15T07:47:20;6.13;;;3.70;;
47429;SDS011;33181;49.246;7.372;2023-04-15T07:49:46;5.03;;;3.73;;
47429;SDS011;33181;49.246;7.372;2023-04-15T07:52:12;11.07;;;4.00;;
47429;SDS011;33181;49.246;7.372;2023-04-15T07:54:38;6.60;;;3.53;;
47429;SDS011;33181;49.246;7.372;2023-04-15T07:57:03;8.53;;;4.00;;
47429;SDS011;33181;49.246;7.372;2023-04-15T07:59:29;6.40;;;3.70;;
47429;SDS011;33181;49.246;7.372;2023-04-15T08:01:57;4.50;;;3.40;;
47429;SDS011;33181;49.246;7.372;2023-04-15T08:04:23;7.20;;;3.67;;
47429;SDS011;33181;49.246;7.372;2023-04-15T08:06:49;5.20;;;3.43;;
47429;SDS011;33181;49.246;7.372;2023-04-15T08:09:16;5.70;;;3.40;;
47429;SDS011;33181;49.246;7.372;2023-04-15T08:11:42;6.80;;;3.80;;
47429;SDS011;33181;49.246;7.372;2023-04-15T08:14:08;5.67;;;3.80;;
47429;SDS011;33181;49.246;7.372;2023-04-15T08:16:33;8.27;;;3.67;;
47429;SDS011;33181;49.246;7.372;2023-04-15T08:18:59;5.40;;;3.63;;
47429;SDS011;33181;49.246;7.372;2023-04-15T08:21:25;6.73;;;3.40;;
47429;SDS011;33181;49.246;7.372;2023-04-15T08:23:52;5.20;;;3.27;;
47429;SDS011;33181;49.246;7.372;2023-04-15T08:26:18;5.07;;;3.40;;
47429;SDS011;33181;49.246;7.372;2023-04-15T08:28:45;6.20;;;3.50;;
47429;SDS011;33181;49.246;7.372;2023-04-15T08:31:12;6.83;;;3.43;;
47429;SDS011;33181;49.246;7.372;2023-04-15T08:33:39;7.30;;;3.80;;
47429;SDS011;33181;49.246;7.372;2023-04-15T08:36:05;5.27;;;3.30;;
47429;SDS011;33181;49.246;7.372;2023-04-15T08:38:32;9.53;;;3.43;;
47429;SDS011;33181;49.246;7.372;2023-04-15T08:40:59;5.50;;;3.23;;
47429;SDS011;33181;49.246;7.372;2023-04-15T08:43:34;6.10;;;3.50;;
47429;SDS011;33181;49.246;7.372;2023-04-15T08:46:16;4.30;;;3.00;;
47429;SDS011;33181;49.246;7.372;2023-04-15T08:48:43;4.53;;;3.20;;
47429;SDS011;33181;49.246;7.372;2023-04-15T08:51:11;5.27;;;3.00;;
47429;SDS011;33181;49.246;7.372;2023-04-15T08:53:40;6.13;;;3.30;;
47429;SDS011;33181;49.246;7.372;2023-04-15T08:56:08;5.13;;;3.37;;
47429;SDS011;33181;49.246;7.372;2023-04-15T08:58:36;12.77;;;3.47;;
47429;SDS011;33181;49.246;7.372;2023-04-15T09:01:02;8.97;;;3.13;;
47429;SDS011;33181;49.246;7.372;2023-04-15T09:03:28;5.33;;;2.90;;
47429;SDS011;33181;49.246;7.372;2023-04-15T09:05:56;4.70;;;2.93;;
47429;SDS011;33181;49.246;7.372;2023-04-15T09:08:22;5.33;;;2.80;;
47429;SDS011;33181;49.246;7.372;2023-04-15T09:10:47;4.90;;;3.07;;
47429;SDS011;33181;49.246;7.372;2023-04-15T09:13:13;5.30;;;3.10;;
47429;SDS011;33181;49.246;7.372;2023-04-15T09:15:39;4.13;;;3.20;;
47429;SDS011;33181;49.246;7.372;2023-04-15T09:18:05;6.33;;;3.20;;
47429;SDS011;33181;49.246;7.372;2023-04-15T09:20:37;8.63;;;3.43;;
47429;SDS011;33181;49.246;7.372;2023-04-15T09:23:12;7.10;;;3.37;;
47429;SDS011;33181;49.246;7.372;2023-04-15T09:25:39;4.93;;;3.00;;
47429;SDS011;33181;49.246;7.372;2023-04-15T09:28:07;5.57;;;2.70;;
47429;SDS011;33181;49.246;7.372;2023-04-15T09:30:33;3.70;;;2.90;;
47429;SDS011;33181;49.246;7.372;2023-04-15T09:33:00;4.30;;;2.70;;
47429;SDS011;33181;49.246;7.372;2023-04-15T09:35:28;4.63;;;3.00;;
47429;SDS011;33181;49.246;7.372;2023-04-15T09:38:05;4.73;;;2.90;;
47429;SDS011;33181;49.246;7.372;2023-04-15T09:43:03;5.17;;;2.70;;
47429;SDS011;33181;49.246;7.372;2023-04-15T09:45:30;4.10;;;2.40;;
47429;SDS011;33181;49.246;7.372;2023-04-15T09:47:58;3.80;;;2.37;;
47429;SDS011;33181;49.246;7.372;2023-04-15T09:50:46;5.70;;;3.40;;
47429;SDS011;33181;49.246;7.372;2023-04-15T09:53:18;6.53;;;3.30;;
47429;SDS011;33181;49.246;7.372;2023-04-15T09:55:50;3.73;;;2.30;;
47429;SDS011;33181;49.246;7.372;2023-04-15T09:58:17;6.57;;;2.77;;
47429;SDS011;33181;49.246;7.372;2023-04-15T10:00:47;4.60;;;2.40;;
47429;SDS011;33181;49.246;7.372;2023-04-15T10:03:19;4.30;;;2.47;;
47429;SDS011;33181;49.246;7.372;2023-04-15T10:05:49;6.07;;;2.90;;
47429;SDS011;33181;49.246;7.372;2023-04-15T10:08:20;4.40;;;2.47;;
47429;SDS011;33181;49.246;7.372;2023-04-15T10:10:49;4.73;;;2.77;;
47429;SDS011;33181;49.246;7.372;2023-04-15T10:13:25;5.10;;;2.30;;
47429;SDS011;33181;49.246;7.372;2023-04-15T10:16:00;3.90;;;2.07;;
47429;SDS011;33181;49.246;7.372;2023-04-15T10:18:35;4.00;;;1.93;;
47429;SDS011;33181;49.246;7.372;2023-04-15T10:21:12;3.53;;;2.23;;
47429;SDS011;33181;49.246;7.372;2023-04-15T10:23:42;3.50;;;2.10;;
47429;SDS011;33181;49.246;7.372;2023-04-15T10:26:12;4.67;;;2.30;;
47429;SDS011;33181;49.246;7.372;2023-04-15T10:28:41;3.23;;;2.30;;
47429;SDS011;33181;49.246;7.372;2023-04-15T10:31:10;5.87;;;2.33;;
47429;SDS011;33181;49.246;7.372;2023-04-15T10:33:40;2.87;;;2.17;;
47429;SDS011;33181;49.246;7.372;2023-04-15T10:36:08;4.40;;;2.73;;
47429;SDS011;33181;49.246;7.372;2023-04-15T10:44:02;3.40;;;2.30;;
47429;SDS011;33181;49.246;7.372;2023-04-15T10:49:11;4.10;;;2.20;;
47429;SDS011;33181;49.246;7.372;2023-04-15T10:51:41;5.30;;;2.80;;
47429;SDS011;33181;49.246;7.372;2023-04-15T10:54:14;4.93;;;2.60;;
47429;SDS011;33181;49.246;7.372;2023-04-15T10:56:42;8.50;;;2.67;;
47429;SDS011;33181;49.246;7.372;2023-04-15T10:59:09;3.50;;;2.80;;
47429;SDS011;33181;49.246;7.372;2023-04-15T11:01:54;4.90;;;2.50;;
47429;SDS011;33181;49.246;7.372;2023-04-15T11:07:35;4.37;;;2.50;;
47429;SDS011;33181;49.246;7.372;2023-04-15T11:12:45;6.57;;;2.73;;
47429;SDS011;33181;49.246;7.372;2023-04-15T11:20:44;3.00;;;2.40;;
47429;SDS011;33181;49.246;7.372;2023-04-15T11:23:33;5.30;;;2.50;;
47429;SDS011;33181;49.246;7.372;2023-04-15T11:26:04;3.70;;;2.40;;
47429;SDS011;33181;49.246;7.372;2023-04-15T11:28:33;6.00;;;2.97;;
47429;SDS011;33181;49.246;7.372;2023-04-15T11:31:13;4.37;;;2.50;;
47429;SDS011;33181;49.246;7.372;2023-04-15T11:34:02;4.27;;;2.63;;
47429;SDS011;33181;49.246;7.372;2023-04-15T11:36:28;5.67;;;2.67;;
47429;SDS011;33181;49.246;7.372;2023-04-15T11:38:56;4.70;;;2.70;;
47429;SDS011;33181;49.246;7.372;2023-04-15T11:41:23;5.60;;;2.70;;
47429;SDS011;33181;49.246;7.372;2023-04-15T11:43:49;5.13;;;2.97;;
47429;SDS011;33181;49.246;7.372;2023-04-15T11:46:16;6.23;;;3.27;;
47429;SDS011;33181;49.246;7.372;2023-04-15T11:48:43;4.43;;;2.50;;
47429;SDS011;33181;49.246;7.372;2023-04-15T11:51:11;6.97;;;2.77;;
47429;SDS011;33181;49.246;7.372;2023-04-15T11:53:42;3.33;;;2.20;;
47429;SDS011;33181;49.246;7.372;2023-04-15T11:56:10;3.70;;;2.47;;
47429;SDS011;33181;49.246;7.372;2023-04-15T11:58:45;5.20;;;2.43;;
47429;SDS011;33181;49.246;7.372;2023-04-15T12:01:13;5.13;;;3.13;;
47429;SDS011;33181;49.246;7.372;2023-04-15T12:03:43;4.67;;;2.83;;
47429;SDS011;33181;49.246;7.372;2023-04-15T12:14:31;4.30;;;2.50;;
47429;SDS011;33181;49.246;7.372;2023-04-15T12:17:02;6.80;;;2.63;;
47429;SDS011;33181;49.246;7.372;2023-04-15T12:22:09;4.30;;;2.30;;
47429;SDS011;33181;49.246;7.372;2023-04-15T12:24:36;3.97;;;2.17;;
47429;SDS011;33181;49.246;7.372;2023-04-15T12:27:10;2.90;;;2.20;;
47429;SDS011;33181;49.246;7.372;2023-04-15T12:29:37;5.97;;;2.90;;
47429;SDS011;33181;49.246;7.372;2023-04-15T12:32:08;4.50;;;3.00;;
47429;SDS011;33181;49.246;7.372;2023-04-15T12:34:43;5.70;;;3.47;;
47429;SDS011;33181;49.246;7.372;2023-04-15T12:37:13;5.10;;;3.50;;
47429;SDS011;33181;49.246;7.372;2023-04-15T12:39:41;5.93;;;3.70;;
47429;SDS011;33181;49.246;7.372;2023-04-15T12:42:09;6.13;;;3.50;;
47429;SDS011;33181;49.246;7.372;2023-04-15T12:44:36;4.57;;;3.40;;
47429;SDS011;33181;49.246;7.372;2023-04-15T12:47:04;7.03;;;3.07;;
47429;SDS011;33181;49.246;7.372;2023-04-15T12:49:30;6.80;;;3.50;;
47429;SDS011;33181;49.246;7.372;2023-04-15T12:51:57;5.27;;;3.43;;
47429;SDS011;33181;49.246;7.372;2023-04-15T12:54:25;9.43;;;3.40;;
47429;SDS011;33181;49.246;7.372;2023-04-15T12:56:55;4.73;;;3.10;;
47429;SDS011;33181;49.246;7.372;2023-04-15T12:59:22;4.50;;;3.10;;
47429;SDS011;33181;49.246;7.372;2023-04-15T13:01:48;3.80;;;2.77;;
47429;SDS011;33181;49.246;7.372;2023-04-15T13:04:15;8.40;;;3.17;;
47429;SDS011;33181;49.246;7.372;2023-04-15T13:06:42;4.03;;;3.00;;
47429;SDS011;33181;49.246;7.372;2023-04-15T13:09:08;3.27;;;2.80;;
47429;SDS011;33181;49.246;7.372;2023-04-15T13:11:33;4.57;;;2.93;;
47429;SDS011;33181;49.246;7.372;2023-04-15T13:14:01;3.50;;;2.93;;
47429;SDS011;33181;49.246;7.372;2023-04-15T13:16:32;4.90;;;3.03;;
47429;SDS011;33181;49.246;7.372;2023-04-15T13:18:59;5.50;;;3.10;;
47429;SDS011;33181;49.246;7.372;2023-04-15T13:21:25;3.80;;;2.50;;
47429;SDS011;33181;49.246;7.372;2023-04-15T13:23:52;4.00;;;2.47;;
47429;SDS011;33181;49.246;7.372;2023-04-15T13:26:19;4.80;;;2.90;;
47429;SDS011;33181;49.246;7.372;2023-04-15T13:28:45;6.60;;;2.63;;
47429;SDS011;33181;49.246;7.372;2023-04-15T13:31:11;3.30;;;2.57;;
47429;SDS011;33181;49.246;7.372;2023-04-15T13:33:36;4.13;;;2.50;;
47429;SDS011;33181;49.246;7.372;2023-04-15T13:36:02;4.03;;;2.70;;
47429;SDS011;33181;49.246;7.372;2023-04-15T13:38:28;4.47;;;2.90;;
47429;SDS011;33181;49.246;7.372;2023-04-15T13:40:54;5.40;;;2.70;;
47429;SDS011;33181;49.246;7.372;2023-04-15T13:43:20;6.00;;;3.03;;
47429;SDS011;33181;49.246;7.372;2023-04-15T13:45:46;4.30;;;3.40;;
47429;SDS011;33181;49.246;7.372;2023-04-15T13:48:12;3.00;;;2.60;;
47429;SDS011;33181;49.246;7.372;2023-04-15T13:50:38;3.90;;;3.10;;
47429;SDS011;33181;49.246;7.372;2023-04-15T13:53:05;4.90;;;3.00;;
47429;SDS011;33181;49.246;7.372;2023-04-15T13:55:31;4.83;;;3.00;;
47429;SDS011;33181;49.246;7.372;2023-04-15T13:57:58;4.20;;;2.70;;
47429;SDS011;33181;49.246;7.372;2023-04-15T14:00:24;4.33;;;2.83;;
47429;SDS011;33181;49.246;7.372;2023-04-15T14:02:50;4.90;;;2.80;;
47429;SDS011;33181;49.246;7.372;2023-04-15T14:05:16;4.23;;;2.67;;
47429;SDS011;33181;49.246;7.372;2023-04-15T14:07:42;4.00;;;2.70;;
47429;SDS011;33181;49.246;7.372;2023-04-15T14:10:07;3.33;;;2.73;;
47429;SDS011;33181;49.246;7.372;2023-04-15T14:12:33;2.63;;;2.43;;
47429;SDS011;33181;49.246;7.372;2023-04-15T14:14:59;5.93;;;3.00;;
47429;SDS011;33181;49.246;7.372;2023-04-15T14:17:26;5.43;;;3.07;;
47429;SDS011;33181;49.246;7.372;2023-04-15T14:19:55;3.80;;;2.53;;
47429;SDS011;33181;49.246;7.372;2023-04-15T14:22:20;3.50;;;2.37;;
47429;SDS011;33181;49.246;7.372;2023-04-15T14:24:46;4.70;;;3.13;;
47429;SDS011;33181;49.246;7.372;2023-04-15T14:27:13;3.73;;;2.50;;
47429;SDS011;33181;49.246;7.372;2023-04-15T14:29:39;4.00;;;2.80;;
47429;SDS011;33181;49.246;7.372;2023-04-15T14:32:05;3.10;;;2.77;;
47429;SDS011;33181;49.246;7.372;2023-04-15T14:34:34;3.10;;;2.80;;
47429;SDS011;33181;49.246;7.372;2023-04-15T14:36:59;3.60;;;2.83;;
47429;SDS011;33181;49.246;7.372;2023-04-15T14:39:26;4.00;;;3.07;;
47429;SDS011;33181;49.246;7.372;2023-04-15T14:41:52;4.07;;;2.80;;
47429;SDS011;33181;49.246;7.372;2023-04-15T14:44:19;3.43;;;2.50;;
47429;SDS011;33181;49.246;7.372;2023-04-15T14:46:45;5.00;;;2.50;;
47429;SDS011;33181;49.246;7.372;2023-04-15T14:49:11;3.10;;;2.20;;
47429;SDS011;33181;49.246;7.372;2023-04-15T14:51:37;5.23;;;2.70;;
47429;SDS011;33181;49.246;7.372;2023-04-15T14:54:02;4.53;;;3.47;;
47429;SDS011;33181;49.246;7.372;2023-04-15T14:56:28;4.30;;;2.67;;
47429;SDS011;33181;49.246;7.372;2023-04-15T14:58:54;3.70;;;2.60;;
47429;SDS011;33181;49.246;7.372;2023-04-15T15:01:20;3.57;;;2.90;;
47429;SDS011;33181;49.246;7.372;2023-04-15T15:03:46;2.90;;;2.40;;
47429;SDS011;33181;49.246;7.372;2023-04-15T15:06:14;2.97;;;2.57;;
47429;SDS011;33181;49.246;7.372;2023-04-15T15:08:40;3.57;;;2.50;;
47429;SDS011;33181;49.246;7.372;2023-04-15T15:11:05;5.50;;;2.93;;
47429;SDS011;33181;49.246;7.372;2023-04-15T15:13:31;3.50;;;2.47;;
47429;SDS011;33181;49.246;7.372;2023-04-15T15:15:57;6.33;;;3.60;;
47429;SDS011;33181;49.246;7.372;2023-04-15T15:18:23;4.27;;;3.20;;